Time;durP1;ratioP1;P1;durP2;ratioP2;P2;SDS_P1;SDS_P2;PMS_P1;PMS_P2;Temp;Humidity;BMP_temperature;BMP_pressure;BME280_temperature;BME280_humidity;BME280_pressure;Samples;Min_cycle;Max_cycle;Signal;HPM_P1;HPM_P2
2023/10/22 00:02:17;;;;;;;6.03;1.85;;;13.50;99.90;;;;;;5011559;28;20197;-55
2023/10/22 00:04:44;;;;;;;3.15;1.30;;;13.50;99.90;;;;;;5011850;28;20164;-55
2023/10/22 00:07:10;;;;;;;4.45;2.03;;;13.40;99.90;;;;;;5011803;28;20521;-55
2023/10/22 00:09:35;;;;;;;5.63;1.77;;;13.40;99.90;;;;;;5011948;28;20211;-56
2023/10/22 00:12:01;;;;;;;5.68;1.85;;;13.50;99.90;;;;;;5011611;28;20231;-56
2023/10/22 00:14:27;;;;;;;10.05;2.17;;;13.40;99.90;;;;;;5012007;28;20164;-57
2023/10/22 00:16:53;;;;;;;4.95;1.77;;;13.40;99.90;;;;;;5011834;28;20686;-62
2023/10/22 00:19:18;;;;;;;5.35;2.15;;;13.50;99.90;;;;;;5011606;28;20616;-57
2023/10/22 00:21:46;;;;;;;4.50;1.60;;;13.40;99.90;;;;;;5011797;28;20251;-56
2023/10/22 00:24:11;;;;;;;4.10;1.50;;;13.40;99.90;;;;;;5011920;28;20560;-59
2023/10/22 00:26:37;;;;;;;3.83;1.48;;;13.40;99.90;;;;;;5011823;28;20262;-57
2023/10/22 00:29:03;;;;;;;8.63;1.83;;;13.40;99.90;;;;;;5012199;28;20168;-57
2023/10/22 00:31:30;;;;;;;7.15;2.03;;;13.30;99.90;;;;;;5011588;28;20213;-56
2023/10/22 00:33:56;;;;;;;7.03;2.35;;;13.40;99.90;;;;;;5011404;28;20639;-56
2023/10/22 00:36:24;;;;;;;5.03;2.20;;;13.40;99.90;;;;;;5011403;28;20172;-55
2023/10/22 00:38:52;;;;;;;7.57;1.90;;;13.40;99.90;;;;;;5011409;28;20727;-56
2023/10/22 00:41:18;;;;;;;3.58;1.88;;;13.40;99.90;;;;;;5011740;28;20534;-56
2023/10/22 00:43:44;;;;;;;5.40;1.88;;;13.40;99.90;;;;;;5011378;28;20242;-57
2023/10/22 00:46:22;;;;;;;8.10;2.42;;;13.50;99.90;;;;;;5011087;28;20636;-56
2023/10/22 00:48:48;;;;;;;7.43;2.22;;;13.50;99.90;;;;;;5011753;28;20183;-55
2023/10/22 00:51:14;;;;;;;2.90;1.60;;;13.50;99.90;;;;;;5011533;28;20204;-56
2023/10/22 00:53:45;;;;;;;3.65;1.67;;;13.50;99.90;;;;;;5011634;28;20202;-55
2023/10/22 00:56:12;;;;;;;3.85;1.70;;;13.50;99.90;;;;;;5012882;28;20172;-55
2023/10/22 00:58:38;;;;;;;4.65;2.03;;;13.50;99.90;;;;;;5015391;28;20258;-55
2023/10/22 01:01:08;;;;;;;5.38;1.73;;;13.50;99.90;;;;;;5015534;28;20167;-55
2023/10/22 01:03:36;;;;;;;3.95;1.63;;;13.50;99.90;;;;;;5015755;28;20168;-56
2023/10/22 01:06:06;;;;;;;2.78;1.63;;;13.50;99.90;;;;;;5015707;28;20188;-55
2023/10/22 01:08:36;;;;;;;6.82;1.60;;;13.50;99.90;;;;;;5015257;28;20528;-55
2023/10/22 01:11:11;;;;;;;5.85;2.10;;;13.50;99.90;;;;;;5015109;28;20223;-56
2023/10/22 01:13:40;;;;;;;5.53;1.98;;;13.50;99.90;;;;;;5014900;28;20620;-57
2023/10/22 01:16:08;;;;;;;3.65;1.65;;;13.50;99.90;;;;;;5015235;28;20222;-56
2023/10/22 01:18:33;;;;;;;3.65;2.08;;;13.50;99.90;;;;;;5015693;28;20176;-55
2023/10/22 01:20:59;;;;;;;5.43;2.10;;;13.50;99.90;;;;;;5015096;28;20512;-56
2023/10/22 01:23:25;;;;;;;8.27;1.92;;;13.50;99.90;;;;;;5013458;28;20180;-55
2023/10/22 01:25:51;;;;;;;3.20;1.58;;;13.50;99.90;;;;;;5014736;28;20172;-56
2023/10/22 01:28:17;;;;;;;5.53;1.75;;;13.50;99.90;;;;;;5014745;28;20190;-55
2023/10/22 01:30:42;;;;;;;4.93;1.58;;;13.60;99.90;;;;;;5014529;28;20192;-55
2023/10/22 01:33:08;;;;;;;5.50;1.98;;;13.60;99.90;;;;;;5014443;28;20255;-56
2023/10/22 01:35:34;;;;;;;6.10;1.80;;;13.60;99.90;;;;;;5015184;28;20195;-55
2023/10/22 01:37:59;;;;;;;4.72;2.00;;;13.60;99.90;;;;;;5014527;28;20176;-56
2023/10/22 01:40:25;;;;;;;3.45;1.98;;;13.60;99.90;;;;;;5014522;28;20187;-58
2023/10/22 01:42:51;;;;;;;6.00;2.03;;;13.60;99.90;;;;;;5014676;28;20200;-56
2023/10/22 01:45:17;;;;;;;8.18;2.08;;;13.60;99.90;;;;;;5014724;28;20175;-55
2023/10/22 01:47:43;;;;;;;2.67;1.55;;;13.50;99.90;;;;;;5013179;28;20654;-55
2023/10/22 01:50:09;;;;;;;5.47;1.90;;;13.50;99.90;;;;;;5014319;28;20283;-55
2023/10/22 01:52:34;;;;;;;3.78;1.38;;;13.60;99.90;;;;;;5014595;28;20172;-56
2023/10/22 01:55:00;;;;;;;2.72;1.40;;;13.50;99.90;;;;;;5014155;28;20172;-59
2023/10/22 01:57:25;;;;;;;4.10;1.70;;;13.50;99.90;;;;;;5014140;28;20695;-55
2023/10/22 01:59:51;;;;;;;2.90;1.50;;;13.50;99.90;;;;;;5014171;28;20243;-60
2023/10/22 02:02:17;;;;;;;2.67;1.40;;;13.50;99.90;;;;;;5014029;28;20180;-59
2023/10/22 02:04:43;;;;;;;3.53;1.33;;;13.50;99.90;;;;;;5014396;28;20172;-55
2023/10/22 02:07:09;;;;;;;1.42;0.82;;;13.50;99.90;;;;;;5013956;28;20219;-55
2023/10/22 02:09:34;;;;;;;2.90;0.90;;;13.40;99.90;;;;;;5014045;28;20592;-60
2023/10/22 02:12:00;;;;;;;0.93;0.63;;;13.40;99.90;;;;;;5013781;28;20217;-57
2023/10/22 02:14:26;;;;;;;3.50;1.00;;;13.40;99.90;;;;;;5014140;28;20825;-55
2023/10/22 02:16:51;;;;;;;1.50;0.80;;;13.40;99.90;;;;;;5013747;28;20171;-55
2023/10/22 02:19:18;;;;;;;2.05;1.02;;;13.40;99.90;;;;;;5013833;28;20170;-55
2023/10/22 02:21:44;;;;;;;1.58;1.02;;;13.30;99.90;;;;;;5013635;28;20176;-56
2023/10/22 02:24:10;;;;;;;3.10;1.40;;;13.30;99.90;;;;;;5013930;28;20585;-55
2023/10/22 02:26:35;;;;;;;3.17;1.95;;;13.30;99.90;;;;;;5013914;28;20164;-58
2023/10/22 02:29:01;;;;;;;2.92;1.55;;;13.40;99.90;;;;;;5013503;28;20160;-55
2023/10/22 02:31:26;;;;;;;2.00;1.10;;;13.40;99.90;;;;;;5013552;28;20211;-55
2023/10/22 02:34:05;;;;;;;2.42;1.40;;;13.30;99.90;;;;;;5013478;28;20225;-55
2023/10/22 02:36:31;;;;;;;3.40;1.42;;;13.20;99.90;;;;;;5013525;28;20179;-55
2023/10/22 02:38:56;;;;;;;4.65;1.92;;;13.20;99.90;;;;;;5013362;28;20168;-54
2023/10/22 02:41:22;;;;;;;4.20;1.75;;;13.20;99.90;;;;;;5013421;28;20540;-55
2023/10/22 02:43:47;;;;;;;5.13;1.65;;;13.30;99.90;;;;;;5013232;28;20648;-54
2023/10/22 02:46:15;;;;;;;1.92;1.30;;;13.30;99.90;;;;;;5013363;28;20172;-55
2023/10/22 02:48:41;;;;;;;3.17;1.50;;;13.30;99.90;;;;;;5013388;28;20255;-55
2023/10/22 02:51:06;;;;;;;4.35;1.90;;;13.30;99.90;;;;;;5013032;28;20326;-55
2023/10/22 02:53:32;;;;;;;7.15;2.75;;;13.30;99.90;;;;;;5013531;28;20228;-55
2023/10/22 02:56:02;;;;;;;1.67;0.65;;;13.30;99.90;;;;;;5013440;28;20172;-55
2023/10/22 02:58:29;;;;;;;3.30;1.50;;;13.30;99.90;;;;;;5012990;28;20164;-55
2023/10/22 03:00:55;;;;;;;2.50;1.10;;;13.20;99.90;;;;;;5013053;28;20682;-57
2023/10/22 03:03:23;;;;;;;2.97;1.25;;;13.20;99.90;;;;;;5012759;28;20179;-56
2023/10/22 03:05:49;;;;;;;4.90;1.90;;;13.20;99.90;;;;;;5013054;28;20230;-56
2023/10/22 03:08:14;;;;;;;4.25;1.40;;;13.20;99.90;;;;;;5011587;28;20168;-56
2023/10/22 03:10:40;;;;;;;7.30;1.80;;;13.20;99.90;;;;;;5012500;28;20628;-56
2023/10/22 03:13:06;;;;;;;1.73;0.82;;;13.30;99.90;;;;;;5013339;28;20513;-56
2023/10/22 03:15:32;;;;;;;1.75;1.20;;;13.30;99.90;;;;;;5013163;28;20164;-56
2023/10/22 03:17:57;;;;;;;3.70;1.83;;;13.20;99.90;;;;;;5012674;28;20653;-59
2023/10/22 03:20:24;;;;;;;3.67;1.33;;;13.20;99.90;;;;;;5012351;28;20682;-57
2023/10/22 03:22:50;;;;;;;2.30;0.90;;;13.20;99.90;;;;;;5012611;28;20243;-56
2023/10/22 03:25:16;;;;;;;2.65;1.38;;;13.20;99.90;;;;;;5012755;28;20574;-56
2023/10/22 03:27:42;;;;;;;3.70;1.50;;;13.20;99.90;;;;;;5012506;28;20160;-57
2023/10/22 03:30:10;;;;;;;1.85;1.48;;;13.20;99.90;;;;;;5012403;28;20214;-57
2023/10/22 03:32:35;;;;;;;3.63;1.55;;;13.20;99.90;;;;;;5011672;28;20172;-57
2023/10/22 03:35:01;;;;;;;4.35;1.38;;;13.20;99.90;;;;;;5012834;28;20187;-64
2023/10/22 03:37:27;;;;;;;2.75;1.90;;;13.20;99.90;;;;;;5012688;28;20174;-60
2023/10/22 03:39:52;;;;;;;3.85;1.65;;;13.20;99.90;;;;;;5012255;28;20524;-64
2023/10/22 03:42:18;;;;;;;5.05;1.60;;;13.20;99.90;;;;;;5012147;28;20274;-63
2023/10/22 03:44:43;;;;;;;3.17;1.52;;;13.20;99.90;;;;;;5012233;28;20574;-64
2023/10/22 03:47:09;;;;;;;3.88;1.70;;;13.20;99.90;;;;;;5012096;28;20574;-63
2023/10/22 03:49:35;;;;;;;3.25;1.23;;;13.20;99.90;;;;;;5012484;28;20647;-63
2023/10/22 03:52:00;;;;;;;3.05;1.85;;;13.20;99.90;;;;;;5012121;28;20227;-63
2023/10/22 03:54:27;;;;;;;3.22;1.83;;;13.20;99.90;;;;;;5012078;28;20168;-62
2023/10/22 03:56:52;;;;;;;2.80;2.10;;;13.10;99.90;;;;;;5012167;28;20531;-62
2023/10/22 03:59:18;;;;;;;4.90;2.10;;;13.10;99.90;;;;;;5012222;28;20172;-60
2023/10/22 04:01:43;;;;;;;6.55;2.00;;;13.10;99.90;;;;;;5010480;28;20176;-63
2023/10/22 04:04:09;;;;;;;6.80;1.70;;;13.10;99.90;;;;;;5011768;28;20179;-61
2023/10/22 04:06:35;;;;;;;3.05;1.83;;;13.00;99.90;;;;;;5012187;28;20245;-62
2023/10/22 04:09:00;;;;;;;3.15;1.80;;;13.00;99.90;;;;;;5011810;28;20187;-60
2023/10/22 04:11:26;;;;;;;5.05;1.92;;;13.00;99.90;;;;;;5011669;28;20246;-64
2023/10/22 04:13:51;;;;;;;4.97;1.77;;;13.00;99.90;;;;;;5011704;28;20526;-64
2023/10/22 04:16:17;;;;;;;5.00;2.05;;;13.00;99.90;;;;;;5011772;28;20179;-63
2023/10/22 04:18:43;;;;;;;2.88;1.42;;;13.00;99.90;;;;;;5011901;28;20168;-67
2023/10/22 04:21:15;;;;;;;6.13;2.03;;;13.00;99.90;;;;;;5011732;28;20523;-56
2023/10/22 04:23:41;;;;;;;3.50;1.10;;;13.00;99.90;;;;;;5011657;28;20175;-56
2023/10/22 04:26:14;;;;;;;2.85;1.05;;;13.00;99.90;;;;;;5011693;28;20168;-56
2023/10/22 04:28:40;;;;;;;2.58;1.42;;;13.00;99.90;;;;;;5011661;28;20250;-56
2023/10/22 04:31:07;;;;;;;3.63;1.35;;;13.00;99.90;;;;;;5010876;28;20215;-57
2023/10/22 04:33:33;;;;;;;1.85;1.33;;;13.10;99.90;;;;;;5012373;28;20179;-55
2023/10/22 04:35:58;;;;;;;2.78;1.88;;;13.00;99.90;;;;;;5011498;28;20267;-56
2023/10/22 04:38:24;;;;;;;5.35;1.85;;;13.10;99.90;;;;;;5011415;28;20196;-55
2023/10/22 04:40:49;;;;;;;3.33;1.80;;;13.00;99.90;;;;;;5011649;28;20174;-55
2023/10/22 04:43:15;;;;;;;2.20;1.40;;;13.00;99.90;;;;;;5011446;28;20709;-55
2023/10/22 04:45:47;;;;;;;4.40;1.73;;;13.00;99.90;;;;;;5010636;28;20328;-55
2023/10/22 04:48:13;;;;;;;4.78;1.60;;;13.00;99.90;;;;;;5011578;28;20544;-55
2023/10/22 04:50:39;;;;;;;4.22;1.70;;;13.00;99.90;;;;;;5011363;28;20195;-57
2023/10/22 04:53:04;;;;;;;4.10;1.42;;;13.00;99.90;;;;;;5012061;28;20658;-56
2023/10/22 04:55:30;;;;;;;6.72;1.90;;;13.00;99.90;;;;;;5011216;28;20173;-56
2023/10/22 04:57:56;;;;;;;4.00;1.92;;;13.00;99.90;;;;;;5011295;28;20535;-55
2023/10/22 05:00:22;;;;;;;2.90;1.58;;;13.00;99.90;;;;;;5011483;28;20187;-58
2023/10/22 05:02:48;;;;;;;1.95;1.33;;;13.00;99.90;;;;;;5011219;28;20164;-55
2023/10/22 05:05:13;;;;;;;3.55;1.00;;;13.00;99.90;;;;;;5011588;28;20187;-55
2023/10/22 05:07:39;;;;;;;1.42;1.30;;;13.00;99.90;;;;;;5011583;28;20175;-55
2023/10/22 05:10:05;;;;;;;3.50;1.70;;;12.90;99.90;;;;;;5011503;28;20223;-59
2023/10/22 05:12:30;;;;;;;3.10;1.75;;;13.00;99.90;;;;;;5011231;28;20168;-55
2023/10/22 05:14:56;;;;;;;6.25;2.33;;;13.00;99.90;;;;;;5009816;28;20172;-56
2023/10/22 05:17:24;;;;;;;6.15;2.22;;;12.90;99.90;;;;;;5011064;28;20179;-55
2023/10/22 05:19:50;;;;;;;5.10;1.10;;;12.90;99.90;;;;;;5011073;28;20651;-58
2023/10/22 05:22:17;;;;;;;2.38;0.63;;;12.80;99.90;;;;;;5011180;28;20204;-59
2023/10/22 05:24:48;;;;;;;1.65;0.50;;;12.60;99.90;;;;;;5009898;28;20542;-56
2023/10/22 05:27:15;;;;;;;2.05;0.55;;;12.30;99.90;;;;;;5011401;28;20176;-55
2023/10/22 05:29:42;;;;;;;1.08;0.60;;;12.30;99.90;;;;;;5011342;28;20262;-57
2023/10/22 05:32:08;;;;;;;1.38;0.60;;;12.10;99.90;;;;;;5011014;28;20215;-56
2023/10/22 05:34:33;;;;;;;2.35;0.90;;;14.60;99.90;;;;;;5011669;28;20199;-57
2023/10/22 05:36:59;;;;;;;1.10;0.60;;;12.00;99.90;;;;;;5010939;28;20199;-61
2023/10/22 05:39:25;;;;;;;0.85;0.43;;;12.00;99.90;;;;;;5011222;28;20175;-63
2023/10/22 05:41:51;;;;;;;0.73;0.70;;;12.00;99.90;;;;;;5012152;28;20184;-58
2023/10/22 05:44:16;;;;;;;0.57;0.50;;;11.90;99.90;;;;;;5013181;28;20631;-57
2023/10/22 05:46:42;;;;;;;2.17;0.77;;;11.90;99.90;;;;;;5014394;28;20655;-58
2023/10/22 05:49:10;;;;;;;0.70;0.55;;;11.90;99.90;;;;;;5014737;28;20510;-61
2023/10/22 05:51:36;;;;;;;0.47;0.47;;;11.90;99.90;;;;;;5014634;28;20223;-55
2023/10/22 05:54:03;;;;;;;0.80;0.57;;;11.90;99.90;;;;;;5014616;28;20508;-56
2023/10/22 05:56:30;;;;;;;0.80;0.55;;;11.80;99.90;;;;;;5014189;28;20192;-55
2023/10/22 05:58:56;;;;;;;1.00;0.60;;;11.80;99.90;;;;;;5014049;28;21105;-56
2023/10/22 06:01:22;;;;;;;1.95;0.75;;;11.90;99.90;;;;;;5014364;28;20179;-55
2023/10/22 06:03:48;;;;;;;0.70;0.28;;;11.80;99.90;;;;;;5014170;28;20222;-55
2023/10/22 06:06:18;;;;;;;0.63;0.50;;;11.70;99.90;;;;;;5014291;28;20182;-55
2023/10/22 06:08:45;;;;;;;0.77;0.65;;;11.70;99.90;;;;;;5013960;28;20639;-58
2023/10/22 06:11:11;;;;;;;1.08;0.80;;;11.70;99.90;;;;;;5013499;28;20270;-59
2023/10/22 06:13:36;;;;;;;0.45;0.40;;;11.80;99.90;;;;;;5014089;28;20199;-55
2023/10/22 06:16:02;;;;;;;0.95;0.88;;;11.80;99.90;;;;;;5014200;28;20178;-55
2023/10/22 06:18:28;;;;;;;0.38;0.30;;;11.70;99.90;;;;;;5014007;28;20203;-58
2023/10/22 06:20:53;;;;;;;0.38;0.35;;;11.70;99.90;;;;;;5013716;28;20200;-55
2023/10/22 06:23:21;;;;;;;5.25;0.47;;;11.70;99.90;;;;;;5013766;28;20169;-58
2023/10/22 06:25:47;;;;;;;0.63;0.50;;;11.80;99.90;;;;;;5014012;28;20172;-55
2023/10/22 06:28:13;;;;;;;1.83;0.65;;;11.80;99.90;;;;;;5012274;28;20218;-58
2023/10/22 06:30:39;;;;;;;0.95;0.45;;;11.70;99.90;;;;;;5013369;28;20199;-55
2023/10/22 06:33:05;;;;;;;2.30;0.88;;;11.70;99.90;;;;;;5013811;28;20251;-57
2023/10/22 06:35:30;;;;;;;0.60;0.60;;;11.70;99.90;;;;;;5014036;28;20168;-58
2023/10/22 06:37:56;;;;;;;2.25;0.70;;;11.80;99.90;;;;;;5013599;28;20627;-56
2023/10/22 06:40:23;;;;;;;0.80;0.75;;;11.80;99.90;;;;;;5013373;28;20180;-55
2023/10/22 06:42:49;;;;;;;3.03;0.70;;;11.90;99.90;;;;;;5013359;28;20178;-55
2023/10/22 06:45:15;;;;;;;2.22;0.85;;;11.90;99.90;;;;;;5013434;28;20250;-56
2023/10/22 06:47:41;;;;;;;1.75;0.90;;;11.90;99.90;;;;;;5013187;28;20175;-55
2023/10/22 06:50:08;;;;;;;3.90;1.48;;;11.90;99.90;;;;;;5013092;28;20171;-56
2023/10/22 06:52:35;;;;;;;1.42;0.70;;;12.00;99.90;;;;;;5012147;28;20211;-56
2023/10/22 06:55:01;;;;;;;1.10;0.73;;;12.00;99.90;;;;;;5013089;28;20171;-56
2023/10/22 06:57:27;;;;;;;0.95;0.80;;;12.00;99.90;;;;;;5013007;28;20172;-57
2023/10/22 06:59:56;;;;;;;2.92;1.10;;;12.00;99.90;;;;;;5012600;28;20210;-59
2023/10/22 07:02:22;;;;;;;1.52;1.42;;;12.00;99.90;;;;;;5012965;28;20191;-60
2023/10/22 07:04:52;;;;;;;2.40;1.20;;;12.00;99.90;;;;;;5013009;28;20175;-55
2023/10/22 07:07:17;;;;;;;2.35;0.65;;;12.10;99.90;;;;;;5012534;28;20211;-57
2023/10/22 07:09:43;;;;;;;0.88;0.70;;;12.10;99.90;;;;;;5012537;28;20227;-54
2023/10/22 07:12:09;;;;;;;1.00;0.73;;;12.10;99.90;;;;;;5012507;28;20215;-55
2023/10/22 07:14:34;;;;;;;6.40;1.23;;;12.10;99.90;;;;;;5013381;28;20167;-58
2023/10/22 07:17:01;;;;;;;1.73;1.10;;;12.20;99.90;;;;;;5012795;28;20655;-59
2023/10/22 07:19:27;;;;;;;4.65;1.45;;;12.20;99.90;;;;;;5012553;28;20219;-55
2023/10/22 07:21:52;;;;;;;6.55;2.17;;;12.20;99.90;;;;;;5012585;28;20168;-54
2023/10/22 07:24:18;;;;;;;6.88;2.45;;;12.30;99.90;;;;;;5012533;28;20172;-56
2023/10/22 07:26:44;;;;;;;4.68;2.72;;;12.30;99.90;;;;;;5012497;28;20167;-55
2023/10/22 07:29:09;;;;;;;5.20;1.98;;;12.30;99.90;;;;;;5012651;28;20207;-58
2023/10/22 07:31:35;;;;;;;5.35;2.42;;;12.30;99.90;;;;;;5012723;28;20208;-54
2023/10/22 07:34:01;;;;;;;4.47;1.65;;;12.30;99.90;;;;;;5012705;28;20179;-55
2023/10/22 07:36:26;;;;;;;3.65;1.52;;;12.40;99.90;;;;;;5012479;28;20176;-54
2023/10/22 07:38:53;;;;;;;4.30;1.70;;;12.40;99.90;;;;;;5012279;28;20576;-55
2023/10/22 07:41:19;;;;;;;1.90;1.00;;;12.40;99.90;;;;;;5012366;28;20552;-56
2023/10/22 07:43:45;;;;;;;2.22;1.00;;;12.40;99.90;;;;;;5012214;28;20210;-57
2023/10/22 07:46:14;;;;;;;1.80;1.35;;;12.40;99.90;;;;;;5012385;28;20175;-61
2023/10/22 07:48:40;;;;;;;4.97;1.75;;;12.40;99.90;;;;;;5012064;28;20607;-56
2023/10/22 07:51:13;;;;;;;3.97;1.92;;;12.40;99.90;;;;;;5011953;28;20278;-55
2023/10/22 07:53:39;;;;;;;3.50;1.42;;;12.40;99.90;;;;;;5012011;28;20171;-55
2023/10/22 07:56:06;;;;;;;4.20;1.10;;;12.40;99.90;;;;;;5012595;28;20174;-54
2023/10/22 07:58:32;;;;;;;3.28;1.85;;;12.30;99.90;;;;;;5012456;28;20175;-54
2023/10/22 08:00:59;;;;;;;2.55;1.30;;;12.20;99.90;;;;;;5012036;28;20183;-55
2023/10/22 08:03:27;;;;;;;3.42;1.40;;;12.20;99.90;;;;;;5012073;28;20164;-57
2023/10/22 08:05:52;;;;;;;3.22;0.85;;;12.30;99.90;;;;;;5011762;28;20178;-54
2023/10/22 08:08:18;;;;;;;3.08;1.10;;;12.30;99.90;;;;;;5011797;28;20168;-55
2023/10/22 08:10:43;;;;;;;4.45;1.20;;;12.30;99.90;;;;;;5011650;28;20216;-54
2023/10/22 08:13:09;;;;;;;2.38;1.38;;;12.30;99.90;;;;;;5011953;28;20179;-54
2023/10/22 08:15:35;;;;;;;1.30;1.20;;;12.40;99.90;;;;;;5012218;28;20187;-55
2023/10/22 08:18:00;;;;;;;1.77;1.00;;;12.30;99.90;;;;;;5012175;28;20655;-56
2023/10/22 08:20:26;;;;;;;3.55;1.20;;;12.30;99.90;;;;;;5011679;28;20167;-55
2023/10/22 08:22:51;;;;;;;1.98;0.90;;;12.30;99.90;;;;;;5011538;28;20524;-54
2023/10/22 08:25:17;;;;;;;3.20;1.02;;;12.20;99.90;;;;;;5010331;28;20183;-57
2023/10/22 08:27:43;;;;;;;1.75;1.10;;;12.30;99.90;;;;;;5011479;28;20168;-55
2023/10/22 08:30:09;;;;;;;2.40;0.65;;;12.30;99.90;;;;;;5011763;28;20249;-55
2023/10/22 08:32:34;;;;;;;2.15;1.10;;;12.20;99.90;;;;;;5012075;28;20238;-55
2023/10/22 08:35:01;;;;;;;2.85;1.10;;;12.20;99.90;;;;;;5011824;28;20176;-54
2023/10/22 08:37:27;;;;;;;1.98;1.08;;;12.40;99.90;;;;;;5011637;28;20251;-55
2023/10/22 08:39:53;;;;;;;1.73;0.85;;;12.30;99.90;;;;;;5011495;28;20247;-56
2023/10/22 08:42:23;;;;;;;3.72;1.48;;;12.40;99.90;;;;;;5011406;28;20211;-55
2023/10/22 08:44:49;;;;;;;1.88;0.93;;;12.40;99.90;;;;;;5011500;28;20541;-55
2023/10/22 08:47:16;;;;;;;0.68;0.65;;;12.50;99.90;;;;;;5011396;28;20196;-56
2023/10/22 08:49:41;;;;;;;1.60;0.95;;;12.50;99.90;;;;;;5011117;28;20624;-55
2023/10/22 08:52:08;;;;;;;1.98;0.98;;;12.50;99.90;;;;;;5011094;28;20234;-54
2023/10/22 08:54:37;;;;;;;1.45;1.15;;;12.50;99.90;;;;;;5011971;28;20172;-54
2023/10/22 08:57:03;;;;;;;1.25;0.93;;;12.60;99.90;;;;;;5011855;28;20168;-56
2023/10/22 08:59:29;;;;;;;4.15;1.45;;;12.60;99.90;;;;;;5010003;28;20183;-55
2023/10/22 09:01:56;;;;;;;1.40;1.23;;;12.70;99.90;;;;;;5011335;28;20170;-55
2023/10/22 09:04:22;;;;;;;2.40;0.90;;;12.70;99.90;;;;;;5011636;28;20187;-55
2023/10/22 09:06:52;;;;;;;3.83;1.20;;;12.60;99.90;;;;;;5011346;28;20164;-55
2023/10/22 09:09:33;;;;;;;2.08;1.08;;;12.70;99.90;;;;;;5011088;28;20266;-53
2023/10/22 09:11:59;;;;;;;2.10;1.15;;;12.80;99.90;;;;;;5011138;28;20208;-54
2023/10/22 09:14:26;;;;;;;1.10;1.00;;;12.90;99.90;;;;;;5011212;28;20165;-54
2023/10/22 09:16:51;;;;;;;2.80;1.23;;;13.00;99.90;;;;;;5012109;28;20580;-54
2023/10/22 09:19:36;;;;;;;4.80;1.10;;;13.00;99.90;;;;;;5014753;28;20160;-57
2023/10/22 09:22:04;;;;;;;3.28;1.10;;;13.00;99.90;;;;;;5015277;28;20168;-54
2023/10/22 09:24:32;;;;;;;2.05;1.58;;;13.10;99.90;;;;;;5015318;28;20172;-55
2023/10/22 09:26:58;;;;;;;4.55;1.50;;;13.10;99.90;;;;;;5014643;28;20195;-54
2023/10/22 09:29:26;;;;;;;4.35;1.50;;;13.20;99.90;;;;;;5014281;28;20579;-54
2023/10/22 09:31:53;;;;;;;5.13;2.45;;;13.20;99.90;;;;;;5014874;28;20342;-54
2023/10/22 09:34:32;;;;;;;6.50;2.80;;;13.20;99.90;;;;;;5014560;28;20172;-54
2023/10/22 09:36:59;;;;;;;7.95;2.60;;;13.20;99.90;;;;;;5015253;28;20526;-54
2023/10/22 09:39:35;;;;;;;4.57;2.53;;;13.30;99.90;;;;;;5014348;28;20152;-55
2023/10/22 09:42:03;;;;;;;10.85;3.90;;;15.40;99.90;;;;;;5014993;28;20163;-56
2023/10/22 09:44:30;;;;;;;8.65;3.17;;;13.20;99.90;;;;;;5014496;28;20204;-56
2023/10/22 09:46:57;;;;;;;7.13;2.60;;;13.20;99.90;;;;;;5014256;28;20243;-58
2023/10/22 09:49:23;;;;;;;3.80;2.28;;;13.10;99.90;;;;;;5014624;28;20167;-53
2023/10/22 09:51:51;;;;;;;5.05;2.28;;;13.20;99.90;;;;;;5014332;28;20698;-54
2023/10/22 09:54:21;;;;;;;9.38;2.85;;;13.20;99.90;;;;;;5014174;28;20167;-54
2023/10/22 09:56:57;;;;;;;3.85;1.95;;;13.10;99.90;;;;;;5014335;28;20258;-59
2023/10/22 09:59:25;;;;;;;3.13;1.52;;;13.20;99.90;;;;;;5013031;28;20271;-60
2023/10/22 10:01:51;;;;;;;5.20;1.08;;;13.10;99.90;;;;;;5014068;28;20179;-56
2023/10/22 10:04:19;;;;;;;2.70;1.20;;;13.00;99.90;;;;;;5014454;28;20160;-58
2023/10/22 10:06:46;;;;;;;3.70;1.30;;;13.00;99.90;;;;;;5012830;28;20667;-54
2023/10/22 10:09:12;;;;;;;2.40;0.85;;;13.10;99.90;;;;;;5013694;28;20167;-54
2023/10/22 10:11:39;;;;;;;1.02;0.70;;;13.00;99.90;;;;;;5013945;28;20207;-54
2023/10/22 10:14:31;;;;;;;2.05;0.70;;;13.00;99.90;;;;;;5013577;28;20628;-54
2023/10/22 10:17:00;;;;;;;1.25;0.77;;;13.00;99.90;;;;;;5013718;28;20198;-56
2023/10/22 10:19:26;;;;;;;0.73;0.73;;;13.00;99.90;;;;;;5012578;28;20168;-59
2023/10/22 10:21:53;;;;;;;1.35;1.00;;;13.10;99.90;;;;;;5013782;28;20168;-56
2023/10/22 10:24:25;;;;;;;2.78;0.90;;;13.10;99.90;;;;;;5013800;28;20219;-55
2023/10/22 10:26:56;;;;;;;2.75;0.80;;;13.10;99.90;;;;;;5013488;28;20636;-59
2023/10/22 10:29:29;;;;;;;4.35;1.00;;;13.00;99.90;;;;;;5012408;28;20176;-56
2023/10/22 10:32:15;;;;;;;3.95;1.10;;;13.10;99.90;;;;;;5012294;28;20215;-57
2023/10/22 10:34:46;;;;;;;3.30;1.40;;;13.20;99.90;;;;;;5013395;28;20170;-54
2023/10/22 10:37:19;;;;;;;1.55;1.10;;;13.30;99.90;;;;;;5013293;28;20175;-61
2023/10/22 10:39:46;;;;;;;2.97;1.10;;;13.40;99.90;;;;;;5011997;28;20160;-59
2023/10/22 10:42:31;;;;;;;3.70;1.02;;;13.40;99.90;;;;;;5013346;28;20252;-59
2023/10/22 10:45:00;;;;;;;1.42;0.93;;;13.50;99.90;;;;;;5013138;28;20168;-65
2023/10/22 10:47:29;;;;;;;2.65;1.00;;;13.20;99.90;;;;;;5013062;28;20167;-60
2023/10/22 10:50:03;;;;;;;2.03;1.20;;;13.10;99.90;;;;;;5012950;28;20177;-64
2023/10/22 10:52:56;;;;;;;2.17;0.90;;;13.10;99.90;;;;;;5012870;28;20207;-64
2023/10/22 10:55:32;;;;;;;1.75;0.80;;;13.30;99.90;;;;;;5012424;28;20501;-60
2023/10/22 10:57:59;;;;;;;3.97;0.93;;;13.20;99.90;;;;;;5012837;28;20195;-63
2023/10/22 11:00:28;;;;;;;1.10;0.77;;;13.20;99.90;;;;;;5012629;28;20168;-63
2023/10/22 11:02:59;;;;;;;1.52;1.15;;;13.30;99.90;;;;;;5011660;28;20187;-59
2023/10/22 11:05:32;;;;;;;1.77;0.60;;;13.30;99.90;;;;;;5013023;28;20179;-59
2023/10/22 11:07:58;;;;;;;1.85;0.80;;;13.40;99.90;;;;;;5011141;28;20258;-61
2023/10/22 11:10:27;;;;;;;1.50;0.73;;;13.40;99.90;;;;;;5011627;28;20212;-64
2023/10/22 11:13:01;;;;;;;2.92;1.05;;;13.40;99.90;;;;;;5012535;28;20184;-62
2023/10/22 11:15:34;;;;;;;0.60;0.60;;;13.40;99.90;;;;;;5012799;28;20172;-62
2023/10/22 11:18:02;;;;;;;3.35;0.98;;;13.30;99.90;;;;;;5013093;28;20614;-59
2023/10/22 11:20:27;;;;;;;3.50;0.82;;;13.10;99.90;;;;;;5012496;28;20168;-61
2023/10/22 11:22:53;;;;;;;1.25;0.82;;;13.00;99.90;;;;;;5012224;28;20187;-62
2023/10/22 11:25:20;;;;;;;1.05;0.88;;;13.10;99.90;;;;;;5012770;28;20222;-61
2023/10/22 11:27:46;;;;;;;1.85;0.70;;;13.10;99.90;;;;;;5011967;28;20243;-61
2023/10/22 11:30:34;;;;;;;3.25;1.23;;;13.20;99.90;;;;;;5012115;28;20215;-57
2023/10/22 11:33:00;;;;;;;0.90;0.73;;;13.30;99.90;;;;;;5012637;28;20168;-54
2023/10/22 11:35:30;;;;;;;2.30;1.00;;;13.30;99.90;;;;;;5012152;28;20183;-56
2023/10/22 11:37:57;;;;;;;1.42;0.95;;;13.50;99.90;;;;;;5011962;28;20176;-53
2023/10/22 11:40:28;;;;;;;2.47;0.80;;;13.60;99.90;;;;;;5011768;28;20648;-54
2023/10/22 11:43:14;;;;;;;0.90;0.85;;;13.50;99.90;;;;;;5011997;28;20171;-55
2023/10/22 11:45:53;;;;;;;2.35;0.55;;;13.50;99.90;;;;;;5011614;28;20543;-54
2023/10/22 11:48:21;;;;;;;0.98;0.40;;;13.50;99.90;;;;;;5011710;28;20378;-54
2023/10/22 11:50:56;;;;;;;0.90;0.63;;;13.50;99.90;;;;;;5011572;28;20662;-57
2023/10/22 11:53:21;;;;;;;1.77;0.80;;;13.40;99.90;;;;;;5011774;28;20183;-64
2023/10/22 11:55:47;;;;;;;0.80;0.70;;;13.30;99.90;;;;;;5010561;28;20164;-54
2023/10/22 11:58:17;;;;;;;0.85;0.57;;;13.50;99.90;;;;;;5011956;28;20222;-64
2023/10/22 12:00:44;;;;;;;0.85;0.70;;;13.50;99.90;;;;;;5011375;28;20726;-54
2023/10/22 12:03:10;;;;;;;1.90;0.55;;;13.60;99.90;;;;;;5010513;28;20176;-54
2023/10/22 12:05:35;;;;;;;0.85;0.38;;;13.60;99.90;;;;;;5011812;28;20226;-54
2023/10/22 12:08:01;;;;;;;0.80;0.60;;;13.80;99.90;;;;;;5011741;28;20171;-53
2023/10/22 12:10:26;;;;;;;1.85;1.05;;;13.80;99.90;;;;;;5011263;28;20207;-53
2023/10/22 12:12:55;;;;;;;1.30;0.80;;;13.90;99.90;;;;;;5011497;28;20658;-53
2023/10/22 12:15:20;;;;;;;1.38;0.90;;;14.00;99.90;;;;;;5011456;28;20564;-62
2023/10/22 12:17:46;;;;;;;2.40;1.45;;;14.10;99.90;;;;;;5012179;28;20207;-59
2023/10/22 12:20:12;;;;;;;1.52;1.40;;;14.30;99.90;;;;;;5011412;28;20168;-54
2023/10/22 12:22:37;;;;;;;1.73;1.25;;;14.40;99.90;;;;;;5011655;28;20195;-53
2023/10/22 12:25:06;;;;;;;3.35;2.00;;;14.20;99.90;;;;;;5012043;28;20266;-54
2023/10/22 12:27:32;;;;;;;2.55;2.03;;;14.20;99.90;;;;;;5012077;28;20659;-54
2023/10/22 12:29:58;;;;;;;3.55;2.10;;;14.30;99.90;;;;;;5011451;28;20183;-54
2023/10/22 12:32:24;;;;;;;4.07;2.22;;;14.40;99.90;;;;;;5011469;28;20269;-60
2023/10/22 12:34:50;;;;;;;4.68;2.50;;;14.30;99.90;;;;;;5011433;28;20168;-57
2023/10/22 12:37:15;;;;;;;5.72;3.88;;;14.30;99.90;;;;;;5011361;28;20164;-56
2023/10/22 12:39:42;;;;;;;4.00;2.83;;;14.20;99.90;;;;;;5011672;28;20234;-54
2023/10/22 12:42:08;;;;;;;2.83;1.55;;;14.20;99.90;;;;;;5011298;28;20651;-55
2023/10/22 12:44:34;;;;;;;1.20;1.10;;;14.10;99.90;;;;;;5011592;28;20183;-55
2023/10/22 12:47:00;;;;;;;1.70;1.05;;;14.10;99.90;;;;;;5012133;28;20167;-53
2023/10/22 12:49:25;;;;;;;1.98;1.20;;;14.10;99.90;;;;;;5011504;28;20168;-54